createdAt,value
2023-09-22T00:00:12.267Z,93135.75
2023-09-22T00:02:42.012Z,93133.34
2023-09-22T00:05:11.078Z,93131.00
2023-09-22T00:07:38.749Z,93146.81
2023-09-22T00:10:07.394Z,93153.81
2023-09-22T00:12:34.827Z,93158.66
2023-09-22T00:15:02.501Z,93162.94
2023-09-22T00:17:29.496Z,93161.19
2023-09-22T00:19:56.517Z,93160.84
2023-09-22T00:22:23.780Z,93151.16
2023-09-22T00:24:51.777Z,93155.81
2023-09-22T00:27:18.962Z,93159.66
2023-09-22T00:29:45.902Z,93169.94
2023-09-22T00:32:15.724Z,93157.00
2023-09-22T00:34:42.689Z,93150.31
2023-09-22T00:37:09.513Z,93144.81
2023-09-22T00:39:36.610Z,93150.41
2023-09-22T00:42:06.875Z,93146.78
2023-09-22T00:44:33.857Z,93149.97
2023-09-22T00:47:02.534Z,93145.53
2023-09-22T00:49:31.227Z,93144.00
2023-09-22T00:51:59.570Z,93163.19
2023-09-22T00:54:27.071Z,93166.53
2023-09-22T00:56:54.519Z,93166.81
2023-09-22T00:59:23.399Z,93155.69
2023-09-22T01:01:52.159Z,93176.72
2023-09-22T01:04:21.253Z,93182.56
2023-09-22T01:06:48.740Z,93169.97
2023-09-22T01:09:15.663Z,93175.72
2023-09-22T01:11:42.598Z,93195.66
2023-09-22T01:14:09.401Z,93196.66
2023-09-22T01:16:37.633Z,93169.47
2023-09-22T01:19:15.629Z,93150.69
2023-09-22T01:21:42.979Z,93141.44
2023-09-22T01:24:13.640Z,93161.19
2023-09-22T01:26:41.273Z,93146.84
2023-09-22T01:29:09.244Z,93145.84
2023-09-22T01:31:37.100Z,93146.81
2023-09-22T01:34:04.935Z,93152.81
2023-09-22T01:36:32.498Z,93140.34
2023-09-22T01:39:00.459Z,93152.00
2023-09-22T01:41:27.807Z,93143.09
2023-09-22T01:43:54.818Z,93152.78
2023-09-22T01:46:22.057Z,93152.00
2023-09-22T01:48:49.044Z,93136.81
2023-09-22T01:51:16.251Z,93142.13
2023-09-22T01:53:43.044Z,93138.41
2023-09-22T01:56:10.058Z,93134.22
2023-09-22T01:58:37.093Z,93133.38
2023-09-22T02:01:03.890Z,93127.97
2023-09-22T02:03:31.346Z,93143.19
2023-09-22T02:06:00.682Z,93142.63
2023-09-22T02:08:27.529Z,93150.97
2023-09-22T02:10:54.431Z,93150.22
2023-09-22T02:13:21.200Z,93146.66
2023-09-22T02:15:48.756Z,93151.72
2023-09-22T02:18:16.046Z,93160.84
2023-09-22T02:20:43.380Z,93156.28
2023-09-22T02:23:10.564Z,93149.13
2023-09-22T02:25:48.963Z,93138.84
2023-09-22T02:28:15.689Z,93141.03
2023-09-22T02:30:42.591Z,93139.38
2023-09-22T02:33:09.741Z,93134.91
2023-09-22T02:35:42.259Z,93132.50
2023-09-22T02:38:09.370Z,93133.31
2023-09-22T02:40:36.227Z,93132.59
2023-09-22T02:43:04.549Z,93132.16
2023-09-22T02:45:31.904Z,93134.91
2023-09-22T02:47:58.971Z,93136.09
2023-09-22T02:50:25.848Z,93138.19
2023-09-22T02:52:52.645Z,93139.03
2023-09-22T02:55:19.487Z,93139.63
2023-09-22T02:57:48.538Z,93144.25
2023-09-22T03:00:19.644Z,93161.03
2023-09-22T03:02:47.394Z,93169.44
2023-09-22T03:05:17.979Z,93168.50
2023-09-22T03:07:49.003Z,93167.41
2023-09-22T03:10:19.220Z,93169.97
2023-09-22T03:12:46.408Z,93165.34
2023-09-22T03:15:14.662Z,93176.03
2023-09-22T03:17:43.029Z,93176.09
2023-09-22T03:20:14.137Z,93152.53
2023-09-22T03:22:41.998Z,93152.31
2023-09-22T03:25:10.622Z,93167.50
2023-09-22T03:27:39.555Z,93169.81
2023-09-22T03:30:10.133Z,93164.31
2023-09-22T03:32:40.597Z,93145.38
2023-09-22T03:35:09.892Z,93146.81
2023-09-22T03:37:38.732Z,93142.53
2023-09-22T03:40:11.782Z,93142.28
2023-09-22T03:42:38.625Z,93138.53
2023-09-22T03:45:10.235Z,93150.34
2023-09-22T03:47:38.048Z,93150.16
2023-09-22T03:50:06.398Z,93164.03
2023-09-22T03:52:33.547Z,93161.03
2023-09-22T03:55:01.969Z,93152.16
2023-09-22T03:57:29.931Z,93144.25
2023-09-22T03:59:57.308Z,93137.56
2023-09-22T04:02:24.215Z,93141.28
2023-09-22T04:04:52.238Z,93149.34
2023-09-22T04:07:18.900Z,93155.75
2023-09-22T04:09:45.951Z,93169.72
2023-09-22T04:12:13.385Z,93166.72
2023-09-22T04:14:43.519Z,93171.34
2023-09-22T04:17:11.027Z,93164.75
2023-09-22T04:19:39.337Z,93165.06
2023-09-22T04:22:08.842Z,93164.47
2023-09-22T04:24:36.220Z,93173.09
2023-09-22T04:27:10.140Z,93173.00
2023-09-22T04:29:37.158Z,93161.47
2023-09-22T04:32:06.438Z,93172.09
2023-09-22T04:34:34.184Z,93165.91
2023-09-22T04:37:06.128Z,93164.94
2023-09-22T04:39:34.346Z,93165.03
2023-09-22T04:42:02.242Z,93177.22
2023-09-22T04:44:29.245Z,93173.91
2023-09-22T04:46:56.337Z,93167.97
2023-09-22T04:49:24.133Z,93169.41
2023-09-22T04:51:53.291Z,93179.94
2023-09-22T04:54:21.070Z,93184.94
2023-09-22T04:56:48.089Z,93198.91
2023-09-22T04:59:17.479Z,93192.88
2023-09-22T05:01:44.819Z,93188.69
2023-09-22T05:04:12.106Z,93201.69
2023-09-22T05:06:39.395Z,93208.09
2023-09-22T05:09:08.796Z,93203.97
2023-09-22T05:11:36.093Z,93205.41
2023-09-22T05:14:05.249Z,93206.44
2023-09-22T05:16:32.661Z,93214.56
2023-09-22T05:19:01.243Z,93221.59
2023-09-22T05:21:28.208Z,93220.06
2023-09-22T05:23:55.575Z,93225.63
2023-09-22T05:26:23.393Z,93229.38
2023-09-22T05:28:53.005Z,93239.25
2023-09-22T05:31:20.508Z,93235.31
2023-09-22T05:33:47.808Z,93242.34
2023-09-22T05:36:14.797Z,93251.78
2023-09-22T05:38:41.608Z,93257.59
2023-09-22T05:41:10.020Z,93250.03
2023-09-22T05:43:36.785Z,93260.56
2023-09-22T05:46:05.120Z,93248.41
2023-09-22T05:48:32.075Z,93254.06
2023-09-22T05:51:00.804Z,93264.28
2023-09-22T05:53:29.378Z,93272.84
2023-09-22T05:56:06.086Z,93277.56
2023-09-22T05:58:34.942Z,93272.44
2023-09-22T06:01:10.058Z,93272.53
2023-09-22T06:03:40.355Z,93275.59
2023-09-22T06:06:09.406Z,93271.81
2023-09-22T06:08:37.926Z,93280.94
2023-09-22T06:11:05.622Z,93276.47
2023-09-22T06:13:34.469Z,93268.13
2023-09-22T06:16:02.274Z,93269.44
2023-09-22T06:18:29.860Z,93256.28
2023-09-22T06:20:58.293Z,93256.06
2023-09-22T06:23:26.056Z,93242.19
2023-09-22T06:25:57.238Z,93247.75
2023-09-22T06:28:24.023Z,93244.00
2023-09-22T06:30:51.257Z,93254.53
2023-09-22T06:33:18.769Z,93254.00
2023-09-22T06:35:46.415Z,93252.22
2023-09-22T06:38:17.822Z,93248.53
2023-09-22T06:40:46.338Z,93233.06
2023-09-22T06:43:23.110Z,93232.91
2023-09-22T06:45:54.576Z,93244.13
2023-09-22T06:48:27.768Z,93236.88
2023-09-22T06:50:59.379Z,93234.84
2023-09-22T06:53:28.028Z,93236.47
2023-09-22T06:56:07.494Z,93237.44
2023-09-22T06:58:36.039Z,93245.13
2023-09-22T07:01:13.575Z,93259.34
2023-09-22T07:03:41.540Z,93280.47
2023-09-22T07:06:11.746Z,93288.50
2023-09-22T07:08:39.595Z,93277.31
2023-09-22T07:11:11.450Z,93271.19
2023-09-22T07:13:41.613Z,93281.72
2023-09-22T07:16:08.828Z,93280.47
2023-09-22T07:18:36.148Z,93282.38
2023-09-22T07:21:03.323Z,93293.50
2023-09-22T07:23:32.859Z,93291.22
2023-09-22T07:26:08.130Z,93293.81
2023-09-22T07:28:35.529Z,93293.47
2023-09-22T07:31:12.632Z,93296.13
2023-09-22T07:33:44.784Z,93298.03
2023-09-22T07:36:13.188Z,93301.09
2023-09-22T07:38:40.989Z,93284.84
2023-09-22T07:41:07.947Z,93295.19
2023-09-22T07:43:37.408Z,93308.94
2023-09-22T07:46:07.919Z,93309.28
2023-09-22T07:48:36.470Z,93313.09
2023-09-22T07:51:03.304Z,93320.38
2023-09-22T07:53:30.378Z,93302.13
2023-09-22T07:56:00.955Z,93294.56
2023-09-22T07:58:28.867Z,93288.91
2023-09-22T08:00:56.058Z,93289.47
2023-09-22T08:03:23.140Z,93303.53
2023-09-22T08:05:51.363Z,93304.66
2023-09-22T08:08:18.752Z,93306.63
2023-09-22T08:10:45.919Z,93298.16
2023-09-22T08:13:13.461Z,93306.63
2023-09-22T08:15:40.930Z,93312.03
2023-09-22T08:18:08.304Z,93307.53
2023-09-22T08:20:35.961Z,93317.84
2023-09-22T08:23:03.871Z,93316.88
2023-09-22T08:25:31.983Z,93312.78
2023-09-22T08:27:59.682Z,93311.47
2023-09-22T08:30:26.813Z,93311.34
2023-09-22T08:32:55.076Z,93319.41
2023-09-22T08:35:22.213Z,93321.59
2023-09-22T08:37:50.324Z,93324.00
2023-09-22T08:40:18.922Z,93321.00
2023-09-22T08:42:49.483Z,93330.19
2023-09-22T08:45:17.106Z,93330.78
2023-09-22T08:47:46.851Z,93334.97
2023-09-22T08:50:15.631Z,93331.72
2023-09-22T08:52:47.550Z,93332.63
2023-09-22T08:55:15.655Z,93328.91
2023-09-22T08:58:35.311Z,93335.09
2023-09-22T09:01:04.372Z,93330.56
2023-09-22T09:03:34.285Z,93325.91
2023-09-22T09:06:07.789Z,93322.50
2023-09-22T09:08:37.865Z,93330.38
2023-09-22T09:11:10.140Z,93321.59
2023-09-22T09:13:37.965Z,93317.47
2023-09-22T09:16:09.324Z,93319.13
2023-09-22T09:18:37.216Z,93326.06
2023-09-22T09:21:12.648Z,93339.50
2023-09-22T09:23:55.612Z,93329.53
2023-09-22T09:26:29.031Z,93342.72
2023-09-22T09:28:57.779Z,93340.88
2023-09-22T09:31:47.656Z,93350.31
2023-09-22T09:34:17.791Z,93353.66
2023-09-22T09:36:44.769Z,93337.19
2023-09-22T09:39:13.630Z,93349.19
2023-09-22T09:41:44.016Z,93347.72
2023-09-22T09:44:11.319Z,93345.94
2023-09-22T09:46:40.776Z,93340.72
2023-09-22T09:49:11.857Z,93337.69
2023-09-22T09:51:41.283Z,93324.81
2023-09-22T09:54:09.373Z,93324.03
2023-09-22T09:56:40.326Z,93324.47
2023-09-22T09:59:09.660Z,93324.47
2023-09-22T10:01:38.819Z,93324.34
2023-09-22T10:04:08.575Z,93329.88
2023-09-22T10:06:46.143Z,93341.00
2023-09-22T10:09:17.859Z,93341.81
2023-09-22T10:11:44.896Z,93345.56
2023-09-22T10:14:48.704Z,93326.50
2023-09-22T10:17:23.354Z,93328.69
2023-09-22T10:19:50.556Z,93330.69
2023-09-22T10:22:17.322Z,93330.22
2023-09-22T10:24:44.453Z,93337.19
2023-09-22T10:27:15.930Z,93337.19
2023-09-22T10:29:46.750Z,93346.13
2023-09-22T10:32:19.845Z,93346.56
2023-09-22T10:34:48.298Z,93339.97
2023-09-22T10:37:19.425Z,93341.22
2023-09-22T10:39:59.853Z,93334.09
2023-09-22T10:42:28.345Z,93331.06
2023-09-22T10:45:00.574Z,93340.31
2023-09-22T10:48:00.780Z,93345.69
2023-09-22T10:50:31.940Z,93342.09
2023-09-22T10:53:05.363Z,93346.63
2023-09-22T10:55:43.443Z,93350.44
2023-09-22T10:58:16.040Z,93344.75
2023-09-22T11:01:00.917Z,93352.47
2023-09-22T11:03:29.405Z,93343.59
2023-09-22T11:06:09.330Z,93342.81
2023-09-22T11:08:49.192Z,93340.25
2023-09-22T11:11:20.374Z,93340.44
2023-09-22T11:13:58.380Z,93343.94
2023-09-22T11:16:28.373Z,93344.31
2023-09-22T11:19:06.533Z,93342.13
2023-09-22T11:21:40.885Z,93343.34
2023-09-22T11:24:09.488Z,93358.53
2023-09-22T11:26:43.579Z,93361.31
2023-09-22T11:29:10.981Z,93359.66
2023-09-22T11:31:57.907Z,93356.78
2023-09-22T11:34:26.113Z,93357.66
2023-09-22T11:36:54.295Z,93360.59
2023-09-22T11:39:31.982Z,93350.94
2023-09-22T11:41:59.303Z,93337.06
2023-09-22T11:44:26.258Z,93338.00
2023-09-22T11:46:53.608Z,93330.59
2023-09-22T11:49:22.284Z,93319.38
2023-09-22T11:51:59.893Z,93327.72
2023-09-22T11:54:30.724Z,93317.28
2023-09-22T11:56:59.530Z,93325.59
2023-09-22T11:59:29.317Z,93317.69
2023-09-22T12:01:56.575Z,93321.84
2023-09-22T12:04:24.450Z,93320.38
2023-09-22T12:06:52.445Z,93320.31
2023-09-22T12:09:20.012Z,93319.88
2023-09-22T12:11:48.406Z,93324.16
2023-09-22T12:14:15.654Z,93319.31
2023-09-22T12:16:42.734Z,93312.28
2023-09-22T12:19:09.683Z,93328.53
2023-09-22T12:21:36.869Z,93325.28
2023-09-22T12:24:04.093Z,93318.00
2023-09-22T12:26:32.311Z,93321.69
2023-09-22T12:28:59.585Z,93315.16
2023-09-22T12:31:27.912Z,93314.50
2023-09-22T12:33:56.013Z,93307.22
2023-09-22T12:36:22.757Z,93293.78
2023-09-22T12:38:49.515Z,93294.94
2023-09-22T12:41:16.229Z,93294.81
2023-09-22T12:43:43.168Z,93286.03
2023-09-22T12:46:13.961Z,93285.56
2023-09-22T12:48:41.212Z,93289.19
2023-09-22T12:51:12.584Z,93287.66
2023-09-22T12:53:39.766Z,93278.38
2023-09-22T12:56:07.516Z,93276.75
2023-09-22T12:58:35.976Z,93286.22
2023-09-22T13:01:06.086Z,93286.59
2023-09-22T13:03:35.298Z,93283.25
2023-09-22T13:06:04.747Z,93272.81
2023-09-22T13:08:34.401Z,93272.97
2023-09-22T13:11:03.268Z,93274.78
2023-09-22T13:13:31.666Z,93270.69
2023-09-22T13:15:59.455Z,93264.97
2023-09-22T13:18:26.463Z,93267.03
2023-09-22T13:20:53.247Z,93279.97
2023-09-22T13:23:20.817Z,93279.59
2023-09-22T13:25:48.204Z,93260.31
2023-09-22T13:28:17.052Z,93256.72
2023-09-22T13:30:55.022Z,93250.38
2023-09-22T13:33:23.160Z,93237.72
2023-09-22T13:35:53.449Z,93244.19
2023-09-22T13:38:20.685Z,93242.84
2023-09-22T13:40:51.640Z,93245.88
2023-09-22T13:43:18.741Z,93242.84
2023-09-22T13:45:45.530Z,93235.06
2023-09-22T13:48:12.444Z,93241.97
2023-09-22T13:50:40.188Z,93231.94
2023-09-22T13:53:09.515Z,93238.56
2023-09-22T13:55:40.395Z,93240.22
2023-09-22T13:58:08.178Z,93242.06
2023-09-22T14:00:35.971Z,93244.06
2023-09-22T14:03:03.954Z,93253.97
2023-09-22T14:05:33.009Z,93249.63
2023-09-22T14:08:01.068Z,93252.63
2023-09-22T14:10:29.266Z,93253.25
2023-09-22T14:12:56.634Z,93253.25
2023-09-22T14:15:24.096Z,93261.88
2023-09-22T14:17:52.530Z,93254.75
2023-09-22T14:20:23.105Z,93262.03
2023-09-22T14:22:51.510Z,93255.94
2023-09-22T14:25:19.855Z,93258.91
2023-09-22T14:27:46.809Z,93252.72
2023-09-22T14:30:14.117Z,93246.25
2023-09-22T14:32:40.960Z,93247.88
2023-09-22T14:35:08.488Z,93259.03
2023-09-22T14:37:35.387Z,93255.03
2023-09-22T14:40:03.054Z,93267.38
2023-09-22T14:42:30.087Z,93264.31
2023-09-22T14:44:57.126Z,93261.78
2023-09-22T14:47:24.033Z,93269.06
2023-09-22T14:49:52.470Z,93267.31
2023-09-22T14:52:19.856Z,93273.47
2023-09-22T14:54:46.571Z,93272.03
2023-09-22T14:57:13.386Z,93277.94
2023-09-22T14:59:41.062Z,93273.63
2023-09-22T15:02:08.448Z,93277.44
2023-09-22T15:04:35.360Z,93279.00
2023-09-22T15:07:03.092Z,93278.06
2023-09-22T15:09:31.088Z,93282.06
2023-09-22T15:11:58.766Z,93288.63
2023-09-22T15:14:28.700Z,93286.69
2023-09-22T15:16:57.490Z,93290.50
2023-09-22T15:19:24.567Z,93297.25
2023-09-22T15:21:52.671Z,93294.50
2023-09-22T15:24:19.450Z,93295.91
2023-09-22T15:26:47.342Z,93303.28
2023-09-22T15:29:17.856Z,93298.81
2023-09-22T15:31:44.938Z,93298.69
2023-09-22T15:34:22.649Z,93315.59
2023-09-22T15:36:55.760Z,93317.75
2023-09-22T15:39:26.024Z,93321.44
2023-09-22T15:41:53.585Z,93323.41
2023-09-22T15:44:20.471Z,93322.94
2023-09-22T15:46:47.355Z,93320.31
2023-09-22T15:49:15.869Z,93329.53
2023-09-22T15:51:42.908Z,93320.28
2023-09-22T15:54:13.215Z,93323.78
2023-09-22T15:56:40.132Z,93322.41
2023-09-22T15:59:07.111Z,93325.47
2023-09-22T16:01:34.127Z,93318.53
2023-09-22T16:04:01.073Z,93322.16
2023-09-22T16:06:27.818Z,93320.94
2023-09-22T16:08:54.732Z,93317.97
2023-09-22T16:11:21.478Z,93324.22
2023-09-22T16:13:48.355Z,93325.56
2023-09-22T16:16:15.122Z,93333.38
2023-09-22T16:18:42.744Z,93328.88
2023-09-22T16:21:11.099Z,93337.16
2023-09-22T16:23:37.864Z,93330.81
2023-09-22T16:26:06.422Z,93334.81
2023-09-22T16:28:34.566Z,93335.19
2023-09-22T16:31:02.132Z,93346.34
2023-09-22T16:33:30.464Z,93356.53
2023-09-22T16:35:58.876Z,93366.19
2023-09-22T16:38:30.500Z,93375.47
2023-09-22T16:40:58.144Z,93377.94
2023-09-22T16:43:33.561Z,93393.88
2023-09-22T16:46:00.591Z,93394.09
2023-09-22T16:48:27.401Z,93400.03
2023-09-22T16:50:54.538Z,93397.56
2023-09-22T16:53:21.654Z,93403.03
2023-09-22T16:55:48.830Z,93395.53
2023-09-22T16:58:15.825Z,93408.97
2023-09-22T17:00:42.843Z,93413.47
2023-09-22T17:03:09.957Z,93420.28
2023-09-22T17:05:37.134Z,93414.44
2023-09-22T17:08:05.689Z,93422.91
2023-09-22T17:10:35.057Z,93424.41
2023-09-22T17:13:01.945Z,93437.50
2023-09-22T17:15:29.091Z,93433.28
2023-09-22T17:17:56.530Z,93430.31
2023-09-22T17:20:23.455Z,93428.75
2023-09-22T17:22:50.815Z,93428.44
2023-09-22T17:25:17.782Z,93436.19
2023-09-22T17:27:44.664Z,93428.03
2023-09-22T17:30:12.389Z,93431.44
2023-09-22T17:32:39.573Z,93429.44
2023-09-22T17:35:07.111Z,93429.47
2023-09-22T17:37:33.953Z,93426.06
2023-09-22T17:40:01.160Z,93428.53
2023-09-22T17:42:28.077Z,93428.25
2023-09-22T17:44:54.860Z,93436.09
2023-09-22T17:47:21.801Z,93440.03
2023-09-22T17:49:48.857Z,93444.72
2023-09-22T17:52:15.949Z,93451.88
2023-09-22T17:54:43.515Z,93450.31
2023-09-22T17:57:10.572Z,93461.75
2023-09-22T17:59:40.202Z,93471.53
2023-09-22T18:02:07.653Z,93461.47
2023-09-22T18:04:35.031Z,93468.78
2023-09-22T18:07:02.097Z,93469.03
2023-09-22T18:09:30.395Z,93465.19
2023-09-22T18:11:57.790Z,93474.28
2023-09-22T18:14:25.536Z,93473.25
2023-09-22T18:16:52.387Z,93480.88
2023-09-22T18:19:22.276Z,93487.81
2023-09-22T18:21:50.960Z,93496.41
2023-09-22T18:24:18.149Z,93500.50
2023-09-22T18:26:44.901Z,93494.81
2023-09-22T18:29:11.751Z,93499.03
2023-09-22T18:31:39.404Z,93515.38
2023-09-22T18:34:09.222Z,93511.00
2023-09-22T18:36:36.277Z,93516.56
2023-09-22T18:39:06.049Z,93522.19
2023-09-22T18:41:33.102Z,93517.16
2023-09-22T18:44:00.104Z,93522.75
2023-09-22T18:46:27.204Z,93521.22
2023-09-22T18:48:54.147Z,93526.00
2023-09-22T18:51:23.644Z,93518.19
2023-09-22T18:53:50.489Z,93515.59
2023-09-22T18:56:17.351Z,93516.50
2023-09-22T18:58:44.507Z,93522.69
2023-09-22T19:01:11.562Z,93519.88
2023-09-22T19:03:39.081Z,93527.69
2023-09-22T19:06:06.018Z,93519.53
2023-09-22T19:08:32.786Z,93528.59
2023-09-22T19:10:59.845Z,93538.25
2023-09-22T19:13:26.945Z,93545.53
2023-09-22T19:16:02.382Z,93557.66
2023-09-22T19:18:29.965Z,93553.91
2023-09-22T19:21:01.606Z,93558.09
2023-09-22T19:23:28.302Z,93560.00
2023-09-22T19:25:55.066Z,93570.25
2023-09-22T19:28:22.022Z,93567.59
2023-09-22T19:30:50.355Z,93574.28
2023-09-22T19:33:17.673Z,93563.22
2023-09-22T19:35:44.588Z,93563.66
2023-09-22T19:38:11.452Z,93575.59
2023-09-22T19:40:39.279Z,93583.88
2023-09-22T19:43:06.783Z,93585.41
2023-09-22T19:45:34.752Z,93585.13
2023-09-22T19:48:02.261Z,93591.38
2023-09-22T19:50:29.391Z,93588.28
2023-09-22T19:52:56.370Z,93588.72
2023-09-22T19:55:24.286Z,93589.25
2023-09-22T19:57:52.389Z,93590.38
2023-09-22T20:00:20.119Z,93589.25
2023-09-22T20:02:47.898Z,93596.03
2023-09-22T20:05:16.469Z,93591.69
2023-09-22T20:07:44.501Z,93592.09
2023-09-22T20:10:15.998Z,93601.78
2023-09-22T20:12:43.556Z,93608.63
2023-09-22T20:15:12.482Z,93621.06
2023-09-22T20:17:40.240Z,93627.78
2023-09-22T20:20:11.588Z,93618.69
2023-09-22T20:22:39.186Z,93628.63
2023-09-22T20:25:07.119Z,93621.28
2023-09-22T20:27:34.470Z,93635.66
2023-09-22T20:30:01.341Z,93634.53
2023-09-22T20:32:28.306Z,93643.03
2023-09-22T20:34:56.130Z,93648.50
2023-09-22T20:37:23.053Z,93646.97
2023-09-22T20:39:52.076Z,93652.16
2023-09-22T20:42:37.439Z,93657.22
2023-09-22T20:45:26.129Z,93669.72
2023-09-22T20:47:58.518Z,93659.75
2023-09-22T20:50:27.984Z,93670.50
2023-09-22T20:52:55.035Z,93664.22
2023-09-22T20:55:21.804Z,93663.00
2023-09-22T20:57:48.693Z,93668.41
2023-09-22T21:00:24.093Z,93666.38
2023-09-22T21:02:51.016Z,93677.38
2023-09-22T21:05:18.007Z,93690.16
2023-09-22T21:07:45.078Z,93690.38
2023-09-22T21:10:11.875Z,93701.06
2023-09-22T21:12:38.923Z,93702.88
2023-09-22T21:15:06.113Z,93706.44
2023-09-22T21:17:32.983Z,93713.34
2023-09-22T21:19:59.914Z,93715.78
2023-09-22T21:22:26.711Z,93724.47
2023-09-22T21:24:53.851Z,93728.59
2023-09-22T21:27:20.841Z,93734.91
2023-09-22T21:29:48.440Z,93744.47
2023-09-22T21:32:15.392Z,93742.81
2023-09-22T21:34:42.623Z,93756.41
2023-09-22T21:37:09.470Z,93755.16
2023-09-22T21:39:36.243Z,93761.13
2023-09-22T21:42:03.010Z,93766.59
2023-09-22T21:44:29.770Z,93767.78
2023-09-22T21:46:56.620Z,93765.91
2023-09-22T21:49:23.504Z,93768.63
2023-09-22T21:51:50.416Z,93770.31
2023-09-22T21:54:17.445Z,93775.63
2023-09-22T21:56:44.269Z,93768.16
2023-09-22T21:59:11.011Z,93778.41
2023-09-22T22:01:37.852Z,93778.19
2023-09-22T22:04:05.721Z,93780.41
2023-09-22T22:06:35.113Z,93792.59
2023-09-22T22:09:12.356Z,93795.00
2023-09-22T22:11:41.776Z,93803.69
2023-09-22T22:14:14.457Z,93802.78
2023-09-22T22:16:41.997Z,93796.09
2023-09-22T22:19:10.833Z,93796.47
2023-09-22T22:21:38.038Z,93799.19
2023-09-22T22:24:06.216Z,93804.19
2023-09-22T22:26:34.185Z,93801.63
2023-09-22T22:29:00.965Z,93804.81
2023-09-22T22:31:28.141Z,93806.69
2023-09-22T22:33:54.957Z,93804.78
2023-09-22T22:36:21.769Z,93811.03
2023-09-22T22:38:49.471Z,93815.81
2023-09-22T22:41:16.848Z,93809.84
2023-09-22T22:43:43.771Z,93811.09
2023-09-22T22:46:11.292Z,93816.09
2023-09-22T22:48:38.920Z,93815.63
2023-09-22T22:51:05.680Z,93814.81
2023-09-22T22:53:32.536Z,93826.09
2023-09-22T22:56:00.291Z,93824.13
2023-09-22T22:58:27.938Z,93839.72
2023-09-22T23:01:00.197Z,93840.56
2023-09-22T23:03:31.146Z,93844.59
2023-09-22T23:05:58.417Z,93841.75
2023-09-22T23:08:25.873Z,93846.16
2023-09-22T23:11:06.079Z,93849.31
2023-09-22T23:13:36.353Z,93849.34
2023-09-22T23:16:04.953Z,93865.03
2023-09-22T23:18:34.446Z,93873.25
2023-09-22T23:21:01.375Z,93874.81
2023-09-22T23:23:30.957Z,93875.22
2023-09-22T23:25:59.942Z,93875.22
2023-09-22T23:28:26.804Z,93877.66
2023-09-22T23:30:54.639Z,93877.72
2023-09-22T23:33:24.559Z,93881.63
2023-09-22T23:35:52.411Z,93884.72
2023-09-22T23:38:25.190Z,93884.66
2023-09-22T23:40:53.103Z,93876.88
2023-09-22T23:43:24.383Z,93877.66
2023-09-22T23:45:52.866Z,93884.38
2023-09-22T23:48:19.707Z,93885.13
2023-09-22T23:50:47.714Z,93883.66
2023-09-22T23:53:14.505Z,93905.13
2023-09-22T23:55:41.184Z,93912.53
2023-09-22T23:58:10.248Z,93907.50
